Sichem Singapore — 9HA4414 — position and weather

sailwx.info

Track history (hours):
 
Tides and Currents Weather Stations Pressure Air Temp Water Temp Dewpoint Dewpoint Depression Visibility Wind Speed Wind Dir Waves Ship Positions

Sichem Singapore

Last reported at 2017-Dec-15 11:19 UTC. Time now 2017-Dec-15 16:11 UTC.
Position N 41°19' E 002°11'.

Length 128 m; draft 5.4 m.

Type: Tanker. MMSI: 249880000.

Date/timePositionNaut miles runAvg speedWind from/ knotsBaromVisibWave heightAir tempDewpointWater temp
2017-Dec-15 11:19N 41°19' E 002°11'14 0.7
2017-Dec-14 16:12N 41°06' E 002°04'313.6
2017-Dec-14 16:00N 41°06' E 001°60'1413.7
2017-Dec-14 15:00N 41°05' E 001°42'713.6
2017-Dec-14 14:31N 41°04' E 001°33'6 0.1
2017-Dec-12 12:15N 40°58' E 001°30'512.6
2017-Dec-12 11:50N 40°56' E 001°37'412.2
2017-Dec-12 11:30N 40°55' E 001°42'34611.0
2017-Dec-11 04:01N 38°43' E 008°38'111.7
2017-Dec-11 03:58N 38°42' E 008°38'611.8
2017-Dec-11 03:30N 38°40' E 008°45'2912.1
2017-Dec-11 01:06N 38°31' E 009°20'112.4
2017-Dec-11 01:00N 38°30' E 009°22'31710.7
2017-Dec-09 19:16N 37°07' E 015°49'1411.4
2017-Dec-09 18:01N 37°19' E 015°60'1111.3
2017-Dec-09 17:05N 37°27' E 016°08'111.1
2017-Dec-09 16:59N 37°28' E 016°09'611.2
2017-Dec-09 16:26N 37°33' E 016°14'511.0
2017-Dec-09 15:57N 37°37' E 016°18'  
Track history (hours):
 
Tides and Currents Weather Stations Pressure Air Temp Water Temp Dewpoint Dewpoint Depression Visibility Wind Speed Wind Dir Waves Ship Positions

Sichem Singapore

Last reported at 2017-Dec-15 11:19 UTC. Time now 2017-Dec-15 16:11 UTC.
Position N 41°19' E 002°11'.

Length 128 m; draft 5.4 m.

Type: Tanker. MMSI: 249880000.

Date/timePositionNaut miles runAvg speedWind from/ knotsBaromVisibWave heightAir tempDewpointWater temp
2017-Dec-15 11:19N 41°19' E 002°11'14 0.7
2017-Dec-14 16:12N 41°06' E 002°04'313.6
2017-Dec-14 16:00N 41°06' E 001°60'1413.7
2017-Dec-14 15:00N 41°05' E 001°42'713.6
2017-Dec-14 14:31N 41°04' E 001°33'6 0.1
2017-Dec-12 12:15N 40°58' E 001°30'512.6
2017-Dec-12 11:50N 40°56' E 001°37'412.2
2017-Dec-12 11:30N 40°55' E 001°42'34611.0
2017-Dec-11 04:01N 38°43' E 008°38'111.7
2017-Dec-11 03:58N 38°42' E 008°38'611.8
2017-Dec-11 03:30N 38°40' E 008°45'2912.1
2017-Dec-11 01:06N 38°31' E 009°20'112.4
2017-Dec-11 01:00N 38°30' E 009°22'31710.7
2017-Dec-09 19:16N 37°07' E 015°49'1411.4
2017-Dec-09 18:01N 37°19' E 015°60'1111.3
2017-Dec-09 17:05N 37°27' E 016°08'111.1
2017-Dec-09 16:59N 37°28' E 016°09'611.2
2017-Dec-09 16:26N 37°33' E 016°14'511.0
2017-Dec-09 15:57N 37°37' E 016°18'  

Dump ship's entire track history